sensor_id;sensor_type;location;lat;lon;timestamp;temperature;humidity
1383;DHT22;685;47.196;11.880;2022-10-31T00:01:51;12.00;99.90
1383;DHT22;685;47.196;11.880;2022-10-31T00:04:18;12.20;99.90
1383;DHT22;685;47.196;11.880;2022-10-31T00:06:45;12.00;99.90
1383;DHT22;685;47.196;11.880;2022-10-31T00:09:12;12.20;99.90
1383;DHT22;685;47.196;11.880;2022-10-31T00:11:40;12.20;99.90
1383;DHT22;685;47.196;11.880;2022-10-31T00:14:07;12.30;99.90
1383;DHT22;685;47.196;11.880;2022-10-31T00:16:33;12.20;99.90
1383;DHT22;685;47.196;11.880;2022-10-31T00:19:02;12.00;99.90
1383;DHT22;685;47.196;11.880;2022-10-31T00:21:30;12.10;99.90
1383;DHT22;685;47.196;11.880;2022-10-31T00:23:57;12.00;99.90
1383;DHT22;685;47.196;11.880;2022-10-31T00:26:24;12.10;99.90
1383;DHT22;685;47.196;11.880;2022-10-31T00:28:52;12.10;99.90
1383;DHT22;685;47.196;11.880;2022-10-31T00:31:19;12.00;99.90
1383;DHT22;685;47.196;11.880;2022-10-31T00:33:46;11.90;99.90
1383;DHT22;685;47.196;11.880;2022-10-31T00:36:14;12.00;99.90
1383;DHT22;685;47.196;11.880;2022-10-31T00:38:42;11.90;99.90
1383;DHT22;685;47.196;11.880;2022-10-31T00:41:09;11.70;99.90
1383;DHT22;685;47.196;11.880;2022-10-31T00:43:36;11.70;99.90
1383;DHT22;685;47.196;11.880;2022-10-31T00:46:04;12.00;99.90
1383;DHT22;685;47.196;11.880;2022-10-31T00:48:31;12.00;99.90
1383;DHT22;685;47.196;11.880;2022-10-31T00:50:58;12.10;99.90
1383;DHT22;685;47.196;11.880;2022-10-31T00:53:25;12.20;99.90
1383;DHT22;685;47.196;11.880;2022-10-31T00:55:52;12.00;99.90
1383;DHT22;685;47.196;11.880;2022-10-31T00:58:19;12.00;99.90
1383;DHT22;685;47.196;11.880;2022-10-31T01:00:47;12.00;99.90
1383;DHT22;685;47.196;11.880;2022-10-31T01:03:22;12.10;99.90
1383;DHT22;685;47.196;11.880;2022-10-31T01:05:59;12.00;99.90
1383;DHT22;685;47.196;11.880;2022-10-31T01:08:26;11.70;99.90
1383;DHT22;685;47.196;11.880;2022-10-31T01:11:05;11.90;99.90
1383;DHT22;685;47.196;11.880;2022-10-31T01:13:33;12.00;99.90
1383;DHT22;685;47.196;11.880;2022-10-31T01:16:01;12.00;99.90
1383;DHT22;685;47.196;11.880;2022-10-31T01:18:30;11.50;99.90
1383;DHT22;685;47.196;11.880;2022-10-31T01:21:02;11.30;99.90
1383;DHT22;685;47.196;11.880;2022-10-31T01:23:29;11.60;99.90
1383;DHT22;685;47.196;11.880;2022-10-31T01:26:05;11.60;99.90
1383;DHT22;685;47.196;11.880;2022-10-31T01:28:33;11.50;99.90
1383;DHT22;685;47.196;11.880;2022-10-31T01:31:01;11.60;99.90
1383;DHT22;685;47.196;11.880;2022-10-31T01:33:29;11.80;99.90
1383;DHT22;685;47.196;11.880;2022-10-31T01:35:56;11.90;99.90
1383;DHT22;685;47.196;11.880;2022-10-31T01:38:23;11.90;99.90
1383;DHT22;685;47.196;11.880;2022-10-31T01:40:50;11.90;99.90
1383;DHT22;685;47.196;11.880;2022-10-31T01:43:17;11.90;99.90
1383;DHT22;685;47.196;11.880;2022-10-31T01:45:47;11.60;99.90
1383;DHT22;685;47.196;11.880;2022-10-31T01:48:19;11.70;99.90
1383;DHT22;685;47.196;11.880;2022-10-31T01:50:49;11.50;99.90
1383;DHT22;685;47.196;11.880;2022-10-31T01:53:18;11.40;99.90
1383;DHT22;685;47.196;11.880;2022-10-31T01:55:46;11.60;99.90
1383;DHT22;685;47.196;11.880;2022-10-31T01:58:14;11.70;99.90
1383;DHT22;685;47.196;11.880;2022-10-31T02:00:45;11.60;99.90
1383;DHT22;685;47.196;11.880;2022-10-31T02:03:13;11.40;99.90
1383;DHT22;685;47.196;11.880;2022-10-31T02:05:41;11.60;99.90
1383;DHT22;685;47.196;11.880;2022-10-31T02:08:13;11.50;99.90
1383;DHT22;685;47.196;11.880;2022-10-31T02:10:43;11.40;99.90
1383;DHT22;685;47.196;11.880;2022-10-31T02:13:11;10.90;99.90
1383;DHT22;685;47.196;11.880;2022-10-31T02:15:40;11.00;99.90
1383;DHT22;685;47.196;11.880;2022-10-31T02:18:08;10.80;99.90
1383;DHT22;685;47.196;11.880;2022-10-31T02:20:42;10.90;99.90
1383;DHT22;685;47.196;11.880;2022-10-31T02:23:26;10.80;99.90
1383;DHT22;685;47.196;11.880;2022-10-31T02:29:25;11.30;99.90
1383;DHT22;685;47.196;11.880;2022-10-31T02:32:00;11.30;99.90
1383;DHT22;685;47.196;11.880;2022-10-31T02:34:34;11.30;99.90
1383;DHT22;685;47.196;11.880;2022-10-31T02:37:09;11.40;99.90
1383;DHT22;685;47.196;11.880;2022-10-31T02:39:43;11.20;99.90
1383;DHT22;685;47.196;11.880;2022-10-31T02:42:16;10.90;99.90
1383;DHT22;685;47.196;11.880;2022-10-31T02:44:49;11.00;99.90
1383;DHT22;685;47.196;11.880;2022-10-31T02:47:23;11.10;99.90
1383;DHT22;685;47.196;11.880;2022-10-31T02:49:56;10.40;99.90
1383;DHT22;685;47.196;11.880;2022-10-31T02:52:26;10.30;99.90
1383;DHT22;685;47.196;11.880;2022-10-31T02:54:53;10.50;99.90
1383;DHT22;685;47.196;11.880;2022-10-31T02:57:23;10.80;99.90
1383;DHT22;685;47.196;11.880;2022-10-31T02:59:55;11.10;99.90
1383;DHT22;685;47.196;11.880;2022-10-31T03:02:37;11.20;99.90
1383;DHT22;685;47.196;11.880;2022-10-31T03:05:20;10.90;99.90
1383;DHT22;685;47.196;11.880;2022-10-31T03:07:57;11.00;99.90
1383;DHT22;685;47.196;11.880;2022-10-31T03:10:34;10.90;99.90
1383;DHT22;685;47.196;11.880;2022-10-31T03:13:08;11.00;99.90
1383;DHT22;685;47.196;11.880;2022-10-31T03:15:38;11.10;99.90
1383;DHT22;685;47.196;11.880;2022-10-31T03:18:09;11.10;99.90
1383;DHT22;685;47.196;11.880;2022-10-31T03:20:39;10.80;99.90
1383;DHT22;685;47.196;11.880;2022-10-31T03:23:08;10.90;99.90
1383;DHT22;685;47.196;11.880;2022-10-31T03:25:37;11.10;99.90
1383;DHT22;685;47.196;11.880;2022-10-31T03:28:06;11.20;99.90
1383;DHT22;685;47.196;11.880;2022-10-31T03:30:35;11.20;99.90
1383;DHT22;685;47.196;11.880;2022-10-31T03:33:05;11.00;99.90
1383;DHT22;685;47.196;11.880;2022-10-31T03:35:36;10.60;99.90
1383;DHT22;685;47.196;11.880;2022-10-31T03:38:05;10.40;99.90
1383;DHT22;685;47.196;11.880;2022-10-31T03:40:35;10.50;99.90
1383;DHT22;685;47.196;11.880;2022-10-31T03:43:06;10.30;99.90
1383;DHT22;685;47.196;11.880;2022-10-31T03:45:39;10.60;99.90
1383;DHT22;685;47.196;11.880;2022-10-31T03:48:07;10.70;99.90
1383;DHT22;685;47.196;11.880;2022-10-31T03:50:42;10.90;99.90
1383;DHT22;685;47.196;11.880;2022-10-31T03:53:16;11.00;99.90
1383;DHT22;685;47.196;11.880;2022-10-31T03:55:49;11.00;99.90
1383;DHT22;685;47.196;11.880;2022-10-31T03:58:20;10.80;99.90
1383;DHT22;685;47.196;11.880;2022-10-31T04:00:51;11.00;99.90
1383;DHT22;685;47.196;11.880;2022-10-31T04:03:22;10.90;99.90
1383;DHT22;685;47.196;11.880;2022-10-31T04:05:53;10.50;99.90
1383;DHT22;685;47.196;11.880;2022-10-31T04:08:25;10.70;99.90
1383;DHT22;685;47.196;11.880;2022-10-31T04:10:54;10.90;99.90
1383;DHT22;685;47.196;11.880;2022-10-31T04:13:25;11.00;99.90
1383;DHT22;685;47.196;11.880;2022-10-31T04:15:55;10.80;99.90
1383;DHT22;685;47.196;11.880;2022-10-31T04:18:22;10.90;99.90
1383;DHT22;685;47.196;11.880;2022-10-31T04:20:59;10.90;99.90
1383;DHT22;685;47.196;11.880;2022-10-31T04:23:27;10.90;99.90
1383;DHT22;685;47.196;11.880;2022-10-31T04:25:54;11.00;99.90
1383;DHT22;685;47.196;11.880;2022-10-31T04:28:21;11.10;99.90
1383;DHT22;685;47.196;11.880;2022-10-31T04:30:48;10.90;99.90
1383;DHT22;685;47.196;11.880;2022-10-31T04:33:15;10.60;99.90
1383;DHT22;685;47.196;11.880;2022-10-31T04:35:43;10.50;99.90
1383;DHT22;685;47.196;11.880;2022-10-31T04:38:11;10.20;99.90
1383;DHT22;685;47.196;11.880;2022-10-31T04:40:38;10.10;99.90
1383;DHT22;685;47.196;11.880;2022-10-31T04:43:05;10.20;99.90
1383;DHT22;685;47.196;11.880;2022-10-31T04:45:32;10.40;99.90
1383;DHT22;685;47.196;11.880;2022-10-31T04:47:59;10.30;99.90
1383;DHT22;685;47.196;11.880;2022-10-31T04:50:26;10.30;99.90
1383;DHT22;685;47.196;11.880;2022-10-31T04:52:52;10.20;99.90
1383;DHT22;685;47.196;11.880;2022-10-31T04:55:21;10.20;99.90
1383;DHT22;685;47.196;11.880;2022-10-31T04:57:49;10.50;99.90
1383;DHT22;685;47.196;11.880;2022-10-31T05:00:18;10.70;99.90
1383;DHT22;685;47.196;11.880;2022-10-31T05:02:46;10.60;99.90
1383;DHT22;685;47.196;11.880;2022-10-31T05:05:13;10.70;99.90
1383;DHT22;685;47.196;11.880;2022-10-31T05:07:41;10.70;99.90
1383;DHT22;685;47.196;11.880;2022-10-31T05:10:08;10.50;99.90
1383;DHT22;685;47.196;11.880;2022-10-31T05:12:38;10.60;99.90
1383;DHT22;685;47.196;11.880;2022-10-31T05:15:05;10.70;99.90
1383;DHT22;685;47.196;11.880;2022-10-31T05:17:32;10.80;99.90
1383;DHT22;685;47.196;11.880;2022-10-31T05:19:59;10.90;99.90
1383;DHT22;685;47.196;11.880;2022-10-31T05:22:26;10.80;99.90
1383;DHT22;685;47.196;11.880;2022-10-31T05:24:53;10.40;99.90
1383;DHT22;685;47.196;11.880;2022-10-31T05:27:20;10.40;99.90
1383;DHT22;685;47.196;11.880;2022-10-31T05:29:48;10.30;99.90
1383;DHT22;685;47.196;11.880;2022-10-31T05:32:15;10.00;99.90
1383;DHT22;685;47.196;11.880;2022-10-31T05:34:42;10.30;99.90
1383;DHT22;685;47.196;11.880;2022-10-31T05:37:09;10.50;99.90
1383;DHT22;685;47.196;11.880;2022-10-31T05:39:35;10.50;99.90
1383;DHT22;685;47.196;11.880;2022-10-31T05:42:02;10.50;99.90
1383;DHT22;685;47.196;11.880;2022-10-31T05:44:29;10.40;99.90
1383;DHT22;685;47.196;11.880;2022-10-31T05:46:57;10.30;99.90
1383;DHT22;685;47.196;11.880;2022-10-31T05:49:24;10.10;99.90
1383;DHT22;685;47.196;11.880;2022-10-31T05:51:51;10.10;99.90
1383;DHT22;685;47.196;11.880;2022-10-31T05:54:18;10.20;99.90
1383;DHT22;685;47.196;11.880;2022-10-31T05:56:45;10.20;99.90
1383;DHT22;685;47.196;11.880;2022-10-31T05:59:11;10.30;99.90
1383;DHT22;685;47.196;11.880;2022-10-31T06:01:38;10.10;99.90
1383;DHT22;685;47.196;11.880;2022-10-31T06:04:07;10.20;99.90
1383;DHT22;685;47.196;11.880;2022-10-31T06:06:33;10.10;99.90
1383;DHT22;685;47.196;11.880;2022-10-31T06:09:00;10.40;99.90
1383;DHT22;685;47.196;11.880;2022-10-31T06:11:27;10.50;99.90
1383;DHT22;685;47.196;11.880;2022-10-31T06:13:54;10.50;99.90
1383;DHT22;685;47.196;11.880;2022-10-31T06:16:21;10.10;99.90
1383;DHT22;685;47.196;11.880;2022-10-31T06:18:47;10.20;99.90
1383;DHT22;685;47.196;11.880;2022-10-31T06:21:16;10.30;99.90
1383;DHT22;685;47.196;11.880;2022-10-31T06:23:43;9.90;99.90
1383;DHT22;685;47.196;11.880;2022-10-31T06:26:09;9.80;99.90
1383;DHT22;685;47.196;11.880;2022-10-31T06:28:36;10.20;99.90
1383;DHT22;685;47.196;11.880;2022-10-31T06:31:03;10.20;99.90
1383;DHT22;685;47.196;11.880;2022-10-31T06:33:30;10.00;99.90
1383;DHT22;685;47.196;11.880;2022-10-31T06:35:57;10.30;99.90
1383;DHT22;685;47.196;11.880;2022-10-31T06:38:27;10.30;99.90
1383;DHT22;685;47.196;11.880;2022-10-31T06:40:54;10.50;99.90
1383;DHT22;685;47.196;11.880;2022-10-31T06:43:21;10.60;99.90
1383;DHT22;685;47.196;11.880;2022-10-31T06:45:48;10.70;99.90
1383;DHT22;685;47.196;11.880;2022-10-31T06:48:15;10.70;99.90
1383;DHT22;685;47.196;11.880;2022-10-31T06:50:42;10.60;99.90
1383;DHT22;685;47.196;11.880;2022-10-31T06:53:09;10.60;99.90
1383;DHT22;685;47.196;11.880;2022-10-31T06:55:37;10.70;99.90
1383;DHT22;685;47.196;11.880;2022-10-31T06:58:04;10.70;99.90
1383;DHT22;685;47.196;11.880;2022-10-31T07:00:31;10.50;99.90
1383;DHT22;685;47.196;11.880;2022-10-31T07:02:59;10.60;99.90
1383;DHT22;685;47.196;11.880;2022-10-31T07:05:27;10.50;99.90
1383;DHT22;685;47.196;11.880;2022-10-31T07:07:55;10.70;99.90
1383;DHT22;685;47.196;11.880;2022-10-31T07:10:24;10.70;99.90
1383;DHT22;685;47.196;11.880;2022-10-31T07:12:55;10.40;99.90
1383;DHT22;685;47.196;11.880;2022-10-31T07:15:23;10.10;99.90
1383;DHT22;685;47.196;11.880;2022-10-31T07:17:50;9.70;99.90
1383;DHT22;685;47.196;11.880;2022-10-31T07:20:17;9.90;99.90
1383;DHT22;685;47.196;11.880;2022-10-31T07:22:44;9.80;99.90
1383;DHT22;685;47.196;11.880;2022-10-31T07:25:11;10.00;99.90
1383;DHT22;685;47.196;11.880;2022-10-31T07:27:38;10.20;99.90
1383;DHT22;685;47.196;11.880;2022-10-31T07:30:09;10.50;99.90
1383;DHT22;685;47.196;11.880;2022-10-31T07:32:39;10.50;99.90
1383;DHT22;685;47.196;11.880;2022-10-31T07:35:07;10.50;99.90
1383;DHT22;685;47.196;11.880;2022-10-31T07:37:34;10.40;99.90
1383;DHT22;685;47.196;11.880;2022-10-31T07:40:01;10.50;99.90
1383;DHT22;685;47.196;11.880;2022-10-31T07:42:28;10.70;99.90
1383;DHT22;685;47.196;11.880;2022-10-31T07:44:55;10.60;99.90
1383;DHT22;685;47.196;11.880;2022-10-31T07:47:23;10.30;99.90
1383;DHT22;685;47.196;11.880;2022-10-31T07:49:50;10.50;99.90
1383;DHT22;685;47.196;11.880;2022-10-31T07:52:17;10.50;99.90
1383;DHT22;685;47.196;11.880;2022-10-31T07:54:44;10.40;99.90
1383;DHT22;685;47.196;11.880;2022-10-31T07:57:10;10.40;99.90
1383;DHT22;685;47.196;11.880;2022-10-31T07:59:37;9.80;99.90
1383;DHT22;685;47.196;11.880;2022-10-31T08:02:04;9.70;99.90
1383;DHT22;685;47.196;11.880;2022-10-31T08:04:32;9.90;99.90
1383;DHT22;685;47.196;11.880;2022-10-31T08:06:59;10.20;99.90
1383;DHT22;685;47.196;11.880;2022-10-31T08:09:26;10.30;99.90
1383;DHT22;685;47.196;11.880;2022-10-31T08:11:53;10.30;99.90
1383;DHT22;685;47.196;11.880;2022-10-31T08:14:20;10.40;99.90
1383;DHT22;685;47.196;11.880;2022-10-31T08:16:47;10.40;99.90
1383;DHT22;685;47.196;11.880;2022-10-31T08:19:14;10.50;99.90
1383;DHT22;685;47.196;11.880;2022-10-31T08:21:43;10.60;99.90
1383;DHT22;685;47.196;11.880;2022-10-31T08:24:09;10.50;99.90
1383;DHT22;685;47.196;11.880;2022-10-31T08:26:37;10.60;99.90
1383;DHT22;685;47.196;11.880;2022-10-31T08:29:03;10.70;99.90
1383;DHT22;685;47.196;11.880;2022-10-31T08:31:30;10.70;99.90
1383;DHT22;685;47.196;11.880;2022-10-31T08:33:57;10.50;99.90
1383;DHT22;685;47.196;11.880;2022-10-31T08:36:24;10.70;99.90
1383;DHT22;685;47.196;11.880;2022-10-31T08:38:52;10.80;99.90
1383;DHT22;685;47.196;11.880;2022-10-31T08:41:19;10.90;99.90
1383;DHT22;685;47.196;11.880;2022-10-31T08:43:46;10.90;99.90
1383;DHT22;685;47.196;11.880;2022-10-31T08:46:13;10.40;99.90
1383;DHT22;685;47.196;11.880;2022-10-31T08:48:40;10.60;99.90
1383;DHT22;685;47.196;11.880;2022-10-31T08:51:09;10.80;99.90
1383;DHT22;685;47.196;11.880;2022-10-31T08:53:36;11.00;99.90
1383;DHT22;685;47.196;11.880;2022-10-31T08:56:05;11.00;99.90
1383;DHT22;685;47.196;11.880;2022-10-31T08:58:32;11.10;99.90
1383;DHT22;685;47.196;11.880;2022-10-31T09:01:00;11.20;99.90
1383;DHT22;685;47.196;11.880;2022-10-31T09:03:29;11.40;99.90
1383;DHT22;685;47.196;11.880;2022-10-31T09:05:57;11.10;99.90
1383;DHT22;685;47.196;11.880;2022-10-31T09:08:24;11.30;99.90
1383;DHT22;685;47.196;11.880;2022-10-31T09:10:51;11.40;99.90
1383;DHT22;685;47.196;11.880;2022-10-31T09:13:21;11.50;99.90
1383;DHT22;685;47.196;11.880;2022-10-31T09:15:49;11.50;99.90
1383;DHT22;685;47.196;11.880;2022-10-31T09:18:18;11.70;99.90
1383;DHT22;685;47.196;11.880;2022-10-31T09:20:46;11.90;99.90
1383;DHT22;685;47.196;11.880;2022-10-31T09:23:15;12.10;99.90
1383;DHT22;685;47.196;11.880;2022-10-31T09:25:43;12.30;99.90
1383;DHT22;685;47.196;11.880;2022-10-31T09:28:11;12.40;99.90
1383;DHT22;685;47.196;11.880;2022-10-31T09:30:39;12.60;99.90
1383;DHT22;685;47.196;11.880;2022-10-31T09:33:09;12.60;99.90
1383;DHT22;685;47.196;11.880;2022-10-31T09:35:36;12.80;99.90
1383;DHT22;685;47.196;11.880;2022-10-31T09:38:05;12.90;99.90
1383;DHT22;685;47.196;11.880;2022-10-31T09:40:34;12.90;99.90
1383;DHT22;685;47.196;11.880;2022-10-31T09:43:14;13.00;99.90
1383;DHT22;685;47.196;11.880;2022-10-31T09:45:50;13.00;99.90
1383;DHT22;685;47.196;11.880;2022-10-31T09:48:51;13.10;99.90
1383;DHT22;685;47.196;11.880;2022-10-31T09:51:24;13.10;99.90
1383;DHT22;685;47.196;11.880;2022-10-31T09:53:59;13.10;99.90
1383;DHT22;685;47.196;11.880;2022-10-31T09:56:27;13.10;99.90
1383;DHT22;685;47.196;11.880;2022-10-31T09:58:57;13.10;99.90
1383;DHT22;685;47.196;11.880;2022-10-31T10:01:37;13.20;99.90
1383;DHT22;685;47.196;11.880;2022-10-31T10:04:24;13.20;99.90
1383;DHT22;685;47.196;11.880;2022-10-31T10:06:55;13.20;99.90
1383;DHT22;685;47.196;11.880;2022-10-31T10:09:25;13.20;99.90
1383;DHT22;685;47.196;11.880;2022-10-31T10:12:01;13.30;99.90
1383;DHT22;685;47.196;11.880;2022-10-31T10:14:42;13.30;99.90
1383;DHT22;685;47.196;11.880;2022-10-31T10:17:21;13.30;99.90
1383;DHT22;685;47.196;11.880;2022-10-31T10:20:07;13.40;99.90
1383;DHT22;685;47.196;11.880;2022-10-31T10:22:42;13.40;99.90
1383;DHT22;685;47.196;11.880;2022-10-31T10:25:15;13.40;99.90
1383;DHT22;685;47.196;11.880;2022-10-31T10:27:59;13.50;99.90
1383;DHT22;685;47.196;11.880;2022-10-31T10:30:34;13.50;99.90
1383;DHT22;685;47.196;11.880;2022-10-31T10:33:09;13.50;99.90
1383;DHT22;685;47.196;11.880;2022-10-31T10:35:41;13.60;99.90
1383;DHT22;685;47.196;11.880;2022-10-31T10:38:15;13.70;99.90
1383;DHT22;685;47.196;11.880;2022-10-31T10:40:42;13.80;99.90
1383;DHT22;685;47.196;11.880;2022-10-31T10:43:20;13.80;99.90
1383;DHT22;685;47.196;11.880;2022-10-31T10:45:50;13.80;99.90
1383;DHT22;685;47.196;11.880;2022-10-31T10:48:43;13.80;99.90
1383;DHT22;685;47.196;11.880;2022-10-31T10:51:22;13.90;99.90
1383;DHT22;685;47.196;11.880;2022-10-31T10:54:00;13.90;99.90
1383;DHT22;685;47.196;11.880;2022-10-31T10:56:44;13.90;99.90
1383;DHT22;685;47.196;11.880;2022-10-31T10:59:17;13.90;99.90
1383;DHT22;685;47.196;11.880;2022-10-31T11:01:45;14.00;99.90
1383;DHT22;685;47.196;11.880;2022-10-31T11:04:25;14.00;99.90
1383;DHT22;685;47.196;11.880;2022-10-31T11:07:01;14.10;99.90
1383;DHT22;685;47.196;11.880;2022-10-31T11:09:28;14.10;99.90
1383;DHT22;685;47.196;11.880;2022-10-31T11:11:56;14.30;99.90
1383;DHT22;685;47.196;11.880;2022-10-31T11:14:25;14.30;99.90
1383;DHT22;685;47.196;11.880;2022-10-31T11:16:55;14.30;99.90
1383;DHT22;685;47.196;11.880;2022-10-31T11:19:36;14.40;99.90
1383;DHT22;685;47.196;11.880;2022-10-31T11:22:07;14.50;99.90
1383;DHT22;685;47.196;11.880;2022-10-31T11:24:39;14.40;99.90
1383;DHT22;685;47.196;11.880;2022-10-31T11:27:14;14.40;99.90
1383;DHT22;685;47.196;11.880;2022-10-31T11:29:41;14.50;99.90
1383;DHT22;685;47.196;11.880;2022-10-31T11:32:17;14.60;99.90
1383;DHT22;685;47.196;11.880;2022-10-31T11:34:48;14.70;99.90
1383;DHT22;685;47.196;11.880;2022-10-31T11:37:18;14.80;99.90
1383;DHT22;685;47.196;11.880;2022-10-31T11:39:46;14.80;99.90
1383;DHT22;685;47.196;11.880;2022-10-31T11:42:20;14.80;99.90
1383;DHT22;685;47.196;11.880;2022-10-31T11:44:48;14.70;99.90
1383;DHT22;685;47.196;11.880;2022-10-31T11:47:17;14.80;99.90
1383;DHT22;685;47.196;11.880;2022-10-31T11:49:49;14.80;99.90
1383;DHT22;685;47.196;11.880;2022-10-31T11:52:18;14.90;99.90
1383;DHT22;685;47.196;11.880;2022-10-31T11:54:48;14.90;99.90
1383;DHT22;685;47.196;11.880;2022-10-31T11:57:24;15.00;99.90
1383;DHT22;685;47.196;11.880;2022-10-31T11:59:52;14.90;99.90
1383;DHT22;685;47.196;11.880;2022-10-31T12:02:20;14.80;99.90
1383;DHT22;685;47.196;11.880;2022-10-31T12:04:52;15.10;99.90
1383;DHT22;685;47.196;11.880;2022-10-31T12:07:22;15.40;99.90
1383;DHT22;685;47.196;11.880;2022-10-31T12:09:50;15.50;99.90
1383;DHT22;685;47.196;11.880;2022-10-31T12:12:38;15.50;99.90
1383;DHT22;685;47.196;11.880;2022-10-31T12:15:27;15.40;99.90
1383;DHT22;685;47.196;11.880;2022-10-31T12:21:07;15.20;99.90
1383;DHT22;685;47.196;11.880;2022-10-31T12:23:44;15.30;99.90
1383;DHT22;685;47.196;11.880;2022-10-31T12:26:20;15.50;99.90
1383;DHT22;685;47.196;11.880;2022-10-31T12:29:02;15.40;99.90
1383;DHT22;685;47.196;11.880;2022-10-31T12:31:40;15.40;99.90
1383;DHT22;685;47.196;11.880;2022-10-31T12:34:28;15.40;99.90
1383;DHT22;685;47.196;11.880;2022-10-31T12:37:03;15.40;99.90
1383;DHT22;685;47.196;11.880;2022-10-31T12:39:40;15.40;99.90
1383;DHT22;685;47.196;11.880;2022-10-31T12:42:16;15.50;99.90
1383;DHT22;685;47.196;11.880;2022-10-31T12:44:59;15.70;99.90
1383;DHT22;685;47.196;11.880;2022-10-31T12:47:40;15.70;99.90
1383;DHT22;685;47.196;11.880;2022-10-31T12:50:19;15.90;99.90
1383;DHT22;685;47.196;11.880;2022-10-31T12:52:56;15.80;99.90
1383;DHT22;685;47.196;11.880;2022-10-31T12:55:36;16.00;99.90
1383;DHT22;685;47.196;11.880;2022-10-31T12:58:09;16.00;99.90
1383;DHT22;685;47.196;11.880;2022-10-31T13:00:38;16.00;99.90
1383;DHT22;685;47.196;11.880;2022-10-31T13:03:20;15.90;99.90
1383;DHT22;685;47.196;11.880;2022-10-31T13:05:51;15.90;99.90
1383;DHT22;685;47.196;11.880;2022-10-31T13:08:26;16.00;99.90
1383;DHT22;685;47.196;11.880;2022-10-31T13:11:02;16.10;99.90
1383;DHT22;685;47.196;11.880;2022-10-31T13:13:34;16.30;99.90
1383;DHT22;685;47.196;11.880;2022-10-31T13:16:15;16.30;99.90
1383;DHT22;685;47.196;11.880;2022-10-31T13:18:46;16.20;99.90
1383;DHT22;685;47.196;11.880;2022-10-31T13:21:18;16.10;99.90
1383;DHT22;685;47.196;11.880;2022-10-31T13:23:49;16.20;99.90
1383;DHT22;685;47.196;11.880;2022-10-31T13:26:21;16.30;99.90
1383;DHT22;685;47.196;11.880;2022-10-31T13:28:57;16.30;99.90
1383;DHT22;685;47.196;11.880;2022-10-31T13:31:26;16.30;99.90
1383;DHT22;685;47.196;11.880;2022-10-31T13:33:55;16.30;99.90
1383;DHT22;685;47.196;11.880;2022-10-31T13:36:28;16.20;99.90
1383;DHT22;685;47.196;11.880;2022-10-31T13:39:03;16.30;99.90
1383;DHT22;685;47.196;11.880;2022-10-31T13:41:43;16.40;99.90
1383;DHT22;685;47.196;11.880;2022-10-31T13:44:14;16.30;99.90
1383;DHT22;685;47.196;11.880;2022-10-31T13:46:43;16.40;99.90
1383;DHT22;685;47.196;11.880;2022-10-31T13:49:36;16.40;99.90
1383;DHT22;685;47.196;11.880;2022-10-31T13:52:22;16.40;99.90
1383;DHT22;685;47.196;11.880;2022-10-31T13:54:52;16.40;99.90
1383;DHT22;685;47.196;11.880;2022-10-31T13:57:31;16.40;99.90
1383;DHT22;685;47.196;11.880;2022-10-31T14:00:02;16.40;99.90
1383;DHT22;685;47.196;11.880;2022-10-31T14:02:31;16.50;99.90
1383;DHT22;685;47.196;11.880;2022-10-31T14:05:01;16.60;99.90
1383;DHT22;685;47.196;11.880;2022-10-31T14:07:30;16.50;99.90
1383;DHT22;685;47.196;11.880;2022-10-31T14:10:02;16.50;99.90
1383;DHT22;685;47.196;11.880;2022-10-31T14:12:33;16.60;99.90
1383;DHT22;685;47.196;11.880;2022-10-31T14:15:05;16.50;99.90
1383;DHT22;685;47.196;11.880;2022-10-31T14:17:39;16.60;99.90
1383;DHT22;685;47.196;11.880;2022-10-31T14:20:33;16.60;99.90
1383;DHT22;685;47.196;11.880;2022-10-31T14:23:30;16.50;99.90
1383;DHT22;685;47.196;11.880;2022-10-31T14:26:17;16.40;99.90
1383;DHT22;685;47.196;11.880;2022-10-31T14:28:45;16.40;99.90
1383;DHT22;685;47.196;11.880;2022-10-31T14:31:29;16.20;99.90
1383;DHT22;685;47.196;11.880;2022-10-31T14:33:57;16.00;99.90
1383;DHT22;685;47.196;11.880;2022-10-31T14:36:29;15.90;99.90
1383;DHT22;685;47.196;11.880;2022-10-31T14:39:01;15.80;99.90
1383;DHT22;685;47.196;11.880;2022-10-31T14:41:48;15.80;99.90
1383;DHT22;685;47.196;11.880;2022-10-31T14:44:38;15.90;99.90
1383;DHT22;685;47.196;11.880;2022-10-31T14:47:17;15.90;99.90
1383;DHT22;685;47.196;11.880;2022-10-31T14:50:12;15.90;99.90
1383;DHT22;685;47.196;11.880;2022-10-31T14:52:46;15.80;99.90
1383;DHT22;685;47.196;11.880;2022-10-31T14:55:14;15.70;99.90
1383;DHT22;685;47.196;11.880;2022-10-31T14:57:48;15.50;99.90
1383;DHT22;685;47.196;11.880;2022-10-31T15:00:18;15.50;99.90
1383;DHT22;685;47.196;11.880;2022-10-31T15:02:50;15.60;99.90
1383;DHT22;685;47.196;11.880;2022-10-31T15:05:20;15.60;99.90
1383;DHT22;685;47.196;11.880;2022-10-31T15:07:51;15.50;99.90
1383;DHT22;685;47.196;11.880;2022-10-31T15:10:21;15.20;99.90
1383;DHT22;685;47.196;11.880;2022-10-31T15:12:50;15.20;99.90
1383;DHT22;685;47.196;11.880;2022-10-31T15:15:20;15.20;99.90
1383;DHT22;685;47.196;11.880;2022-10-31T15:17:51;15.20;99.90
1383;DHT22;685;47.196;11.880;2022-10-31T15:20:21;15.30;99.90
1383;DHT22;685;47.196;11.880;2022-10-31T15:22:49;15.50;99.90
1383;DHT22;685;47.196;11.880;2022-10-31T15:25:18;14.80;99.90
1383;DHT22;685;47.196;11.880;2022-10-31T15:27:47;14.60;99.90
1383;DHT22;685;47.196;11.880;2022-10-31T15:30:18;14.90;99.90
1383;DHT22;685;47.196;11.880;2022-10-31T15:32:46;15.10;99.90
1383;DHT22;685;47.196;11.880;2022-10-31T15:35:21;15.20;99.90
1383;DHT22;685;47.196;11.880;2022-10-31T15:37:49;15.30;99.90
1383;DHT22;685;47.196;11.880;2022-10-31T15:40:18;15.20;99.90
1383;DHT22;685;47.196;11.880;2022-10-31T15:42:50;15.00;99.90
1383;DHT22;685;47.196;11.880;2022-10-31T15:45:21;15.10;99.90
1383;DHT22;685;47.196;11.880;2022-10-31T15:47:56;15.00;99.90
1383;DHT22;685;47.196;11.880;2022-10-31T15:50:39;14.70;99.90
1383;DHT22;685;47.196;11.880;2022-10-31T15:53:15;14.80;99.90
1383;DHT22;685;47.196;11.880;2022-10-31T15:55:47;14.80;99.90
1383;DHT22;685;47.196;11.880;2022-10-31T15:58:16;14.80;99.90
1383;DHT22;685;47.196;11.880;2022-10-31T16:00:45;14.90;99.90
1383;DHT22;685;47.196;11.880;2022-10-31T16:03:25;15.10;99.90
1383;DHT22;685;47.196;11.880;2022-10-31T16:05:55;15.10;99.90
1383;DHT22;685;47.196;11.880;2022-10-31T16:08:24;14.90;99.90
1383;DHT22;685;47.196;11.880;2022-10-31T16:10:52;14.70;99.90
1383;DHT22;685;47.196;11.880;2022-10-31T16:13:23;14.30;99.90
1383;DHT22;685;47.196;11.880;2022-10-31T16:15:54;14.20;99.90
1383;DHT22;685;47.196;11.880;2022-10-31T16:18:22;14.40;99.90
1383;DHT22;685;47.196;11.880;2022-10-31T16:20:50;14.60;99.90
1383;DHT22;685;47.196;11.880;2022-10-31T16:23:20;14.70;99.90
1383;DHT22;685;47.196;11.880;2022-10-31T16:25:48;14.70;99.90
1383;DHT22;685;47.196;11.880;2022-10-31T16:28:17;14.40;99.90
1383;DHT22;685;47.196;11.880;2022-10-31T16:30:45;14.40;99.90
1383;DHT22;685;47.196;11.880;2022-10-31T16:33:25;14.50;99.90